sensor_id;sensor_type;location;lat;lon;timestamp;temperature;humidity
66343;DHT22;53144;51.524;5.080;2023-09-18T00:00:08;18.07;99.99
66343;DHT22;53144;51.524;5.080;2023-09-18T00:02:36;18.07;99.99
66343;DHT22;53144;51.524;5.080;2023-09-18T00:05:02;18.04;99.99
66343;DHT22;53144;51.524;5.080;2023-09-18T00:07:28;18.11;99.99
66343;DHT22;53144;51.524;5.080;2023-09-18T00:09:53;18.16;99.99
66343;DHT22;53144;51.524;5.080;2023-09-18T00:12:18;18.20;99.99
66343;DHT22;53144;51.524;5.080;2023-09-18T00:14:47;18.13;99.99
66343;DHT22;53144;51.524;5.080;2023-09-18T00:17:13;18.06;99.99
66343;DHT22;53144;51.524;5.080;2023-09-18T00:19:38;18.13;99.99
66343;DHT22;53144;51.524;5.080;2023-09-18T00:22:04;18.13;99.99
66343;DHT22;53144;51.524;5.080;2023-09-18T00:24:29;18.14;99.99
66343;DHT22;53144;51.524;5.080;2023-09-18T00:26:55;18.17;99.99
66343;DHT22;53144;51.524;5.080;2023-09-18T00:29:20;18.10;99.99
66343;DHT22;53144;51.524;5.080;2023-09-18T00:31:46;18.09;99.99
66343;DHT22;53144;51.524;5.080;2023-09-18T00:34:12;18.06;99.99
66343;DHT22;53144;51.524;5.080;2023-09-18T00:36:37;18.06;99.99
66343;DHT22;53144;51.524;5.080;2023-09-18T00:39:03;18.10;99.99
66343;DHT22;53144;51.524;5.080;2023-09-18T00:41:29;18.09;99.99
66343;DHT22;53144;51.524;5.080;2023-09-18T00:43:54;18.09;99.99
66343;DHT22;53144;51.524;5.080;2023-09-18T00:46:19;18.07;99.99
66343;DHT22;53144;51.524;5.080;2023-09-18T00:48:45;18.14;99.99
66343;DHT22;53144;51.524;5.080;2023-09-18T00:51:12;18.11;99.99
66343;DHT22;53144;51.524;5.080;2023-09-18T00:53:42;18.17;99.99
66343;DHT22;53144;51.524;5.080;2023-09-18T00:56:08;18.18;99.99
66343;DHT22;53144;51.524;5.080;2023-09-18T00:58:33;18.24;99.99
66343;DHT22;53144;51.524;5.080;2023-09-18T01:00:59;18.31;99.99
66343;DHT22;53144;51.524;5.080;2023-09-18T01:03:25;18.31;99.99
66343;DHT22;53144;51.524;5.080;2023-09-18T01:05:50;18.18;99.99
66343;DHT22;53144;51.524;5.080;2023-09-18T01:08:16;18.11;99.99
66343;DHT22;53144;51.524;5.080;2023-09-18T01:11:06;18.13;99.99
66343;DHT22;53144;51.524;5.080;2023-09-18T01:13:51;18.10;99.99
66343;DHT22;53144;51.524;5.080;2023-09-18T01:16:25;18.23;99.99
66343;DHT22;53144;51.524;5.080;2023-09-18T01:18:52;18.29;99.99
66343;DHT22;53144;51.524;5.080;2023-09-18T01:21:20;18.26;99.99
66343;DHT22;53144;51.524;5.080;2023-09-18T01:23:46;18.20;99.99
66343;DHT22;53144;51.524;5.080;2023-09-18T01:26:12;18.20;99.99
66343;DHT22;53144;51.524;5.080;2023-09-18T01:28:37;18.16;99.99
66343;DHT22;53144;51.524;5.080;2023-09-18T01:31:02;18.13;99.99
66343;DHT22;53144;51.524;5.080;2023-09-18T01:33:48;18.16;99.99
66343;DHT22;53144;51.524;5.080;2023-09-18T01:36:16;18.17;99.99
66343;DHT22;53144;51.524;5.080;2023-09-18T01:38:42;18.20;99.99
66343;DHT22;53144;51.524;5.080;2023-09-18T01:41:08;18.30;99.99
66343;DHT22;53144;51.524;5.080;2023-09-18T01:43:34;18.38;99.99
66343;DHT22;53144;51.524;5.080;2023-09-18T01:46:00;18.40;99.99
66343;DHT22;53144;51.524;5.080;2023-09-18T01:48:26;18.36;99.99
66343;DHT22;53144;51.524;5.080;2023-09-18T01:50:51;18.43;99.99
66343;DHT22;53144;51.524;5.080;2023-09-18T01:53:17;18.40;99.99
66343;DHT22;53144;51.524;5.080;2023-09-18T01:55:42;18.48;99.99
66343;DHT22;53144;51.524;5.080;2023-09-18T01:58:09;18.52;99.99
66343;DHT22;53144;51.524;5.080;2023-09-18T02:00:34;18.65;99.99
66343;DHT22;53144;51.524;5.080;2023-09-18T02:02:59;18.68;99.99
66343;DHT22;53144;51.524;5.080;2023-09-18T02:05:25;18.62;99.99
66343;DHT22;53144;51.524;5.080;2023-09-18T02:07:50;18.55;99.99
66343;DHT22;53144;51.524;5.080;2023-09-18T02:10:16;18.50;99.99
66343;DHT22;53144;51.524;5.080;2023-09-18T02:12:41;18.65;99.99
66343;DHT22;53144;51.524;5.080;2023-09-18T02:15:07;18.65;99.99
66343;DHT22;53144;51.524;5.080;2023-09-18T02:17:35;18.68;99.99
66343;DHT22;53144;51.524;5.080;2023-09-18T02:20:01;18.75;99.99
66343;DHT22;53144;51.524;5.080;2023-09-18T02:22:31;18.71;99.99
66343;DHT22;53144;51.524;5.080;2023-09-18T02:24:57;18.73;99.99
66343;DHT22;53144;51.524;5.080;2023-09-18T02:27:23;18.84;99.99
66343;DHT22;53144;51.524;5.080;2023-09-18T02:29:49;18.99;99.97
66343;DHT22;53144;51.524;5.080;2023-09-18T02:32:15;19.08;99.33
66343;DHT22;53144;51.524;5.080;2023-09-18T02:34:41;19.12;98.89
66343;DHT22;53144;51.524;5.080;2023-09-18T02:37:06;19.06;99.05
66343;DHT22;53144;51.524;5.080;2023-09-18T02:39:32;18.99;99.21
66343;DHT22;53144;51.524;5.080;2023-09-18T02:41:58;18.88;99.82
66343;DHT22;53144;51.524;5.080;2023-09-18T02:44:23;18.84;99.70
66343;DHT22;53144;51.524;5.080;2023-09-18T02:46:48;18.87;99.71
66343;DHT22;53144;51.524;5.080;2023-09-18T02:49:14;18.76;99.92
66343;DHT22;53144;51.524;5.080;2023-09-18T02:51:39;18.68;99.99
66343;DHT22;53144;51.524;5.080;2023-09-18T02:54:05;18.57;99.99
66343;DHT22;53144;51.524;5.080;2023-09-18T02:56:30;18.52;99.99
66343;DHT22;53144;51.524;5.080;2023-09-18T02:58:55;18.71;99.99
66343;DHT22;53144;51.524;5.080;2023-09-18T03:01:21;18.71;99.99
66343;DHT22;53144;51.524;5.080;2023-09-18T03:03:46;18.73;99.99
66343;DHT22;53144;51.524;5.080;2023-09-18T03:06:12;18.88;99.90
66343;DHT22;53144;51.524;5.080;2023-09-18T03:08:38;18.89;99.54
66343;DHT22;53144;51.524;5.080;2023-09-18T03:11:10;18.88;99.60
66343;DHT22;53144;51.524;5.080;2023-09-18T03:13:36;18.82;99.86
66343;DHT22;53144;51.524;5.080;2023-09-18T03:16:01;18.79;99.99
66343;DHT22;53144;51.524;5.080;2023-09-18T03:18:27;18.75;99.99
66343;DHT22;53144;51.524;5.080;2023-09-18T03:20:52;18.72;99.99
66343;DHT22;53144;51.524;5.080;2023-09-18T03:23:17;18.76;99.99
66343;DHT22;53144;51.524;5.080;2023-09-18T03:25:43;18.69;99.99
66343;DHT22;53144;51.524;5.080;2023-09-18T03:28:08;18.69;99.99
66343;DHT22;53144;51.524;5.080;2023-09-18T03:30:34;18.69;99.99
66343;DHT22;53144;51.524;5.080;2023-09-18T03:32:59;18.72;99.99
66343;DHT22;53144;51.524;5.080;2023-09-18T03:35:25;18.68;99.99
66343;DHT22;53144;51.524;5.080;2023-09-18T03:37:51;18.84;99.99
66343;DHT22;53144;51.524;5.080;2023-09-18T03:40:19;18.85;99.99
66343;DHT22;53144;51.524;5.080;2023-09-18T03:42:45;19.05;99.98
66343;DHT22;53144;51.524;5.080;2023-09-18T03:45:11;19.15;99.54
66343;DHT22;53144;51.524;5.080;2023-09-18T03:47:38;19.18;99.32
66343;DHT22;53144;51.524;5.080;2023-09-18T03:50:08;19.20;99.27
66343;DHT22;53144;51.524;5.080;2023-09-18T03:52:33;19.23;99.26
66343;DHT22;53144;51.524;5.080;2023-09-18T03:54:58;19.20;99.15
66343;DHT22;53144;51.524;5.080;2023-09-18T03:57:24;19.23;99.20
66343;DHT22;53144;51.524;5.080;2023-09-18T03:59:50;19.26;99.16
66343;DHT22;53144;51.524;5.080;2023-09-18T04:02:15;19.30;99.21
66343;DHT22;53144;51.524;5.080;2023-09-18T04:04:41;19.27;99.29
66343;DHT22;53144;51.524;5.080;2023-09-18T04:07:07;19.24;99.41
66343;DHT22;53144;51.524;5.080;2023-09-18T04:09:32;19.26;99.41
66343;DHT22;53144;51.524;5.080;2023-09-18T04:12:00;19.27;99.42
66343;DHT22;53144;51.524;5.080;2023-09-18T04:14:26;19.31;99.26
66343;DHT22;53144;51.524;5.080;2023-09-18T04:16:51;19.23;99.44
66343;DHT22;53144;51.524;5.080;2023-09-18T04:19:16;19.26;99.36
66343;DHT22;53144;51.524;5.080;2023-09-18T04:21:42;19.24;99.33
66343;DHT22;53144;51.524;5.080;2023-09-18T04:24:07;19.22;99.45
66343;DHT22;53144;51.524;5.080;2023-09-18T04:26:33;19.22;99.51
66343;DHT22;53144;51.524;5.080;2023-09-18T04:28:59;19.20;99.53
66343;DHT22;53144;51.524;5.080;2023-09-18T04:31:25;19.18;99.67
66343;DHT22;53144;51.524;5.080;2023-09-18T04:33:50;19.12;99.73
66343;DHT22;53144;51.524;5.080;2023-09-18T04:36:16;19.09;99.69
66343;DHT22;53144;51.524;5.080;2023-09-18T04:38:41;19.09;99.83
66343;DHT22;53144;51.524;5.080;2023-09-18T04:41:07;18.99;99.97
66343;DHT22;53144;51.524;5.080;2023-09-18T04:43:35;18.95;99.99
66343;DHT22;53144;51.524;5.080;2023-09-18T04:46:01;18.92;99.99
66343;DHT22;53144;51.524;5.080;2023-09-18T04:48:31;18.82;99.99
66343;DHT22;53144;51.524;5.080;2023-09-18T04:50:57;18.81;99.99
66343;DHT22;53144;51.524;5.080;2023-09-18T04:53:23;18.87;99.99
66343;DHT22;53144;51.524;5.080;2023-09-18T04:55:48;18.81;99.99
66343;DHT22;53144;51.524;5.080;2023-09-18T04:58:16;18.85;99.99
66343;DHT22;53144;51.524;5.080;2023-09-18T05:00:41;18.76;99.99
66343;DHT22;53144;51.524;5.080;2023-09-18T05:03:07;18.85;99.99
66343;DHT22;53144;51.524;5.080;2023-09-18T05:05:34;18.87;99.99
66343;DHT22;53144;51.524;5.080;2023-09-18T05:08:07;18.81;99.99
66343;DHT22;53144;51.524;5.080;2023-09-18T05:10:36;18.81;99.99
66343;DHT22;53144;51.524;5.080;2023-09-18T05:13:03;18.82;99.99
66343;DHT22;53144;51.524;5.080;2023-09-18T05:15:28;18.81;99.99
66343;DHT22;53144;51.524;5.080;2023-09-18T05:17:54;18.82;99.99
66343;DHT22;53144;51.524;5.080;2023-09-18T05:20:26;18.91;99.99
66343;DHT22;53144;51.524;5.080;2023-09-18T05:22:54;18.94;99.99
66343;DHT22;53144;51.524;5.080;2023-09-18T05:25:20;18.92;99.99
66343;DHT22;53144;51.524;5.080;2023-09-18T05:27:47;18.96;99.99
66343;DHT22;53144;51.524;5.080;2023-09-18T05:30:19;19.00;99.99
66343;DHT22;53144;51.524;5.080;2023-09-18T05:32:47;18.96;99.99
66343;DHT22;53144;51.524;5.080;2023-09-18T05:35:13;18.94;99.99
66343;DHT22;53144;51.524;5.080;2023-09-18T05:37:39;18.98;99.99
66343;DHT22;53144;51.524;5.080;2023-09-18T05:40:06;18.98;99.88
66343;DHT22;53144;51.524;5.080;2023-09-18T05:42:35;18.96;99.76
66343;DHT22;53144;51.524;5.080;2023-09-18T05:45:01;18.92;99.74
66343;DHT22;53144;51.524;5.080;2023-09-18T05:47:27;18.88;99.86
66343;DHT22;53144;51.524;5.080;2023-09-18T05:49:52;18.89;99.83
66343;DHT22;53144;51.524;5.080;2023-09-18T05:52:17;18.89;99.58
66343;DHT22;53144;51.524;5.080;2023-09-18T05:54:43;18.94;99.32
66343;DHT22;53144;51.524;5.080;2023-09-18T05:57:08;18.92;99.28
66343;DHT22;53144;51.524;5.080;2023-09-18T05:59:34;18.95;99.33
66343;DHT22;53144;51.524;5.080;2023-09-18T06:01:59;18.94;99.04
66343;DHT22;53144;51.524;5.080;2023-09-18T06:04:25;19.05;98.54
66343;DHT22;53144;51.524;5.080;2023-09-18T06:06:50;19.08;98.50
66343;DHT22;53144;51.524;5.080;2023-09-18T06:09:16;19.08;98.25
66343;DHT22;53144;51.524;5.080;2023-09-18T06:11:42;19.13;98.07
66343;DHT22;53144;51.524;5.080;2023-09-18T06:14:07;19.13;97.81
66343;DHT22;53144;51.524;5.080;2023-09-18T06:16:33;19.15;97.46
66343;DHT22;53144;51.524;5.080;2023-09-18T06:18:58;19.12;97.46
66343;DHT22;53144;51.524;5.080;2023-09-18T06:21:25;19.10;97.16
66343;DHT22;53144;51.524;5.080;2023-09-18T06:23:51;19.10;97.11
66343;DHT22;53144;51.524;5.080;2023-09-18T06:26:17;19.12;96.57
66343;DHT22;53144;51.524;5.080;2023-09-18T06:28:43;19.18;95.87
66343;DHT22;53144;51.524;5.080;2023-09-18T06:31:09;19.20;95.75
66343;DHT22;53144;51.524;5.080;2023-09-18T06:33:36;19.20;95.66
66343;DHT22;53144;51.524;5.080;2023-09-18T06:36:02;19.20;95.52
66343;DHT22;53144;51.524;5.080;2023-09-18T06:38:28;19.19;95.84
66343;DHT22;53144;51.524;5.080;2023-09-18T06:40:53;19.22;94.85
66343;DHT22;53144;51.524;5.080;2023-09-18T06:43:20;19.20;95.18
66343;DHT22;53144;51.524;5.080;2023-09-18T06:45:45;19.18;94.60
66343;DHT22;53144;51.524;5.080;2023-09-18T06:48:11;19.24;94.13
66343;DHT22;53144;51.524;5.080;2023-09-18T06:50:36;19.22;94.32
66343;DHT22;53144;51.524;5.080;2023-09-18T06:53:03;19.22;93.85
66343;DHT22;53144;51.524;5.080;2023-09-18T06:55:29;19.22;94.43
66343;DHT22;53144;51.524;5.080;2023-09-18T06:57:54;19.24;93.70
66343;DHT22;53144;51.524;5.080;2023-09-18T07:00:20;19.26;93.21
66343;DHT22;53144;51.524;5.080;2023-09-18T07:02:46;19.24;93.23
66343;DHT22;53144;51.524;5.080;2023-09-18T07:05:11;19.22;93.62
66343;DHT22;53144;51.524;5.080;2023-09-18T07:07:37;19.24;93.14
66343;DHT22;53144;51.524;5.080;2023-09-18T07:10:02;19.19;93.20
66343;DHT22;53144;51.524;5.080;2023-09-18T07:12:28;19.18;93.26
66343;DHT22;53144;51.524;5.080;2023-09-18T07:14:53;19.19;92.97
66343;DHT22;53144;51.524;5.080;2023-09-18T07:17:19;19.22;93.05
66343;DHT22;53144;51.524;5.080;2023-09-18T07:19:44;19.15;94.00
66343;DHT22;53144;51.524;5.080;2023-09-18T07:22:09;19.18;93.10
66343;DHT22;53144;51.524;5.080;2023-09-18T07:24:35;19.16;93.38
66343;DHT22;53144;51.524;5.080;2023-09-18T07:27:00;19.16;93.38
66343;DHT22;53144;51.524;5.080;2023-09-18T07:29:27;19.10;93.72
66343;DHT22;53144;51.524;5.080;2023-09-18T07:31:55;19.20;93.03
66343;DHT22;53144;51.524;5.080;2023-09-18T07:34:21;19.18;92.89
66343;DHT22;53144;51.524;5.080;2023-09-18T07:36:46;19.19;93.14
66343;DHT22;53144;51.524;5.080;2023-09-18T07:39:19;19.20;92.69
66343;DHT22;53144;51.524;5.080;2023-09-18T07:41:45;19.20;92.54
66343;DHT22;53144;51.524;5.080;2023-09-18T07:44:11;19.19;92.92
66343;DHT22;53144;51.524;5.080;2023-09-18T07:46:36;19.18;93.05
66343;DHT22;53144;51.524;5.080;2023-09-18T07:49:02;19.20;92.82
66343;DHT22;53144;51.524;5.080;2023-09-18T07:51:27;19.23;92.50
66343;DHT22;53144;51.524;5.080;2023-09-18T07:53:53;19.29;92.91
66343;DHT22;53144;51.524;5.080;2023-09-18T07:56:21;19.29;92.95
66343;DHT22;53144;51.524;5.080;2023-09-18T07:58:47;19.34;92.04
66343;DHT22;53144;51.524;5.080;2023-09-18T08:01:12;19.37;91.74
66343;DHT22;53144;51.524;5.080;2023-09-18T08:03:41;19.34;92.37
66343;DHT22;53144;51.524;5.080;2023-09-18T08:06:07;19.36;91.95
66343;DHT22;53144;51.524;5.080;2023-09-18T08:08:32;19.36;91.61
66343;DHT22;53144;51.524;5.080;2023-09-18T08:11:06;19.29;91.68
66343;DHT22;53144;51.524;5.080;2023-09-18T08:13:34;19.30;92.09
66343;DHT22;53144;51.524;5.080;2023-09-18T08:16:01;19.39;91.95
66343;DHT22;53144;51.524;5.080;2023-09-18T08:18:26;19.47;91.72
66343;DHT22;53144;51.524;5.080;2023-09-18T08:20:53;19.60;90.95
66343;DHT22;53144;51.524;5.080;2023-09-18T08:23:19;19.73;91.33
66343;DHT22;53144;51.524;5.080;2023-09-18T08:25:45;19.87;90.27
66343;DHT22;53144;51.524;5.080;2023-09-18T08:28:10;19.92;89.54
66343;DHT22;53144;51.524;5.080;2023-09-18T08:30:36;19.97;89.62
66343;DHT22;53144;51.524;5.080;2023-09-18T08:33:04;19.99;89.34
66343;DHT22;53144;51.524;5.080;2023-09-18T08:35:32;20.11;89.44
66343;DHT22;53144;51.524;5.080;2023-09-18T08:37:57;20.12;88.46
66343;DHT22;53144;51.524;5.080;2023-09-18T08:40:23;20.24;88.42
66343;DHT22;53144;51.524;5.080;2023-09-18T08:42:51;20.14;88.75
66343;DHT22;53144;51.524;5.080;2023-09-18T08:45:38;20.24;88.07
66343;DHT22;53144;51.524;5.080;2023-09-18T08:48:06;20.19;88.53
66343;DHT22;53144;51.524;5.080;2023-09-18T08:50:32;20.26;87.54
66343;DHT22;53144;51.524;5.080;2023-09-18T08:52:59;20.43;87.67
66343;DHT22;53144;51.524;5.080;2023-09-18T08:55:24;20.40;86.68
66343;DHT22;53144;51.524;5.080;2023-09-18T08:57:52;20.35;87.09
66343;DHT22;53144;51.524;5.080;2023-09-18T09:00:18;20.50;86.69
66343;DHT22;53144;51.524;5.080;2023-09-18T09:02:44;20.63;86.79
66343;DHT22;53144;51.524;5.080;2023-09-18T09:05:11;20.70;86.61
66343;DHT22;53144;51.524;5.080;2023-09-18T09:07:37;20.69;87.01
66343;DHT22;53144;51.524;5.080;2023-09-18T09:10:03;20.69;86.93
66343;DHT22;53144;51.524;5.080;2023-09-18T09:15:14;20.55;87.45
66343;DHT22;53144;51.524;5.080;2023-09-18T09:17:39;20.47;87.51
66343;DHT22;53144;51.524;5.080;2023-09-18T09:20:12;20.43;87.50
66343;DHT22;53144;51.524;5.080;2023-09-18T09:22:39;20.39;87.29
66343;DHT22;53144;51.524;5.080;2023-09-18T09:25:24;20.36;87.46
66343;DHT22;53144;51.524;5.080;2023-09-18T09:27:56;20.45;87.38
66343;DHT22;53144;51.524;5.080;2023-09-18T09:30:23;20.55;87.43
66343;DHT22;53144;51.524;5.080;2023-09-18T09:32:50;20.65;86.77
66343;DHT22;53144;51.524;5.080;2023-09-18T09:35:30;21.00;86.39
66343;DHT22;53144;51.524;5.080;2023-09-18T09:37:58;21.07;84.63
66343;DHT22;53144;51.524;5.080;2023-09-18T09:40:25;21.05;85.20
66343;DHT22;53144;51.524;5.080;2023-09-18T09:42:52;20.87;86.51
66343;DHT22;53144;51.524;5.080;2023-09-18T09:45:19;20.84;85.74
66343;DHT22;53144;51.524;5.080;2023-09-18T09:47:45;20.69;84.42
66343;DHT22;53144;51.524;5.080;2023-09-18T09:50:12;20.56;85.61
66343;DHT22;53144;51.524;5.080;2023-09-18T09:52:49;20.42;86.75
66343;DHT22;53144;51.524;5.080;2023-09-18T09:55:29;20.40;85.99
66343;DHT22;53144;51.524;5.080;2023-09-18T09:58:14;20.36;85.62
66343;DHT22;53144;51.524;5.080;2023-09-18T10:00:46;20.37;85.49
66343;DHT22;53144;51.524;5.080;2023-09-18T10:03:19;20.33;86.03
66343;DHT22;53144;51.524;5.080;2023-09-18T10:05:47;20.29;86.22
66343;DHT22;53144;51.524;5.080;2023-09-18T10:08:23;20.14;87.12
66343;DHT22;53144;51.524;5.080;2023-09-18T10:10:55;20.16;86.59
66343;DHT22;53144;51.524;5.080;2023-09-18T10:13:29;20.26;86.54
66343;DHT22;53144;51.524;5.080;2023-09-18T10:15:56;20.36;86.62
66343;DHT22;53144;51.524;5.080;2023-09-18T10:18:40;20.50;86.75
66343;DHT22;53144;51.524;5.080;2023-09-18T10:21:26;20.65;86.55
66343;DHT22;53144;51.524;5.080;2023-09-18T10:24:07;20.67;86.02
66343;DHT22;53144;51.524;5.080;2023-09-18T10:26:38;20.56;87.08
66343;DHT22;53144;51.524;5.080;2023-09-18T10:29:09;20.53;86.81
66343;DHT22;53144;51.524;5.080;2023-09-18T10:31:37;20.50;85.96
66343;DHT22;53144;51.524;5.080;2023-09-18T10:34:06;20.43;86.01
66343;DHT22;53144;51.524;5.080;2023-09-18T10:36:32;20.35;86.05
66343;DHT22;53144;51.524;5.080;2023-09-18T10:38:59;20.30;85.41
66343;DHT22;53144;51.524;5.080;2023-09-18T10:41:27;20.24;86.74
66343;DHT22;53144;51.524;5.080;2023-09-18T10:43:54;20.16;86.38
66343;DHT22;53144;51.524;5.080;2023-09-18T10:46:23;20.09;86.79
66343;DHT22;53144;51.524;5.080;2023-09-18T10:48:49;20.09;86.71
66343;DHT22;53144;51.524;5.080;2023-09-18T10:51:22;20.18;86.21
66343;DHT22;53144;51.524;5.080;2023-09-18T10:53:48;20.30;85.76
66343;DHT22;53144;51.524;5.080;2023-09-18T10:56:15;20.42;85.98
66343;DHT22;53144;51.524;5.080;2023-09-18T10:58:42;20.47;85.18
66343;DHT22;53144;51.524;5.080;2023-09-18T11:01:11;20.52;86.03
66343;DHT22;53144;51.524;5.080;2023-09-18T11:03:37;20.74;85.22
66343;DHT22;53144;51.524;5.080;2023-09-18T11:06:08;21.35;83.61
66343;DHT22;53144;51.524;5.080;2023-09-18T11:08:44;21.89;81.16
66343;DHT22;53144;51.524;5.080;2023-09-18T11:11:12;22.10;80.43
66343;DHT22;53144;51.524;5.080;2023-09-18T11:13:43;22.31;79.72
66343;DHT22;53144;51.524;5.080;2023-09-18T11:16:19;21.94;80.57
66343;DHT22;53144;51.524;5.080;2023-09-18T11:21:25;21.62;82.26
66343;DHT22;53144;51.524;5.080;2023-09-18T11:23:58;21.45;82.69
66343;DHT22;53144;51.524;5.080;2023-09-18T11:26:28;21.31;81.34
66343;DHT22;53144;51.524;5.080;2023-09-18T11:28:54;21.23;82.12
66343;DHT22;53144;51.524;5.080;2023-09-18T11:31:19;21.18;82.40
66343;DHT22;53144;51.524;5.080;2023-09-18T11:33:47;21.07;82.21
66343;DHT22;53144;51.524;5.080;2023-09-18T11:36:33;22.30;80.05
66343;DHT22;53144;51.524;5.080;2023-09-18T11:39:00;22.61;78.90
66343;DHT22;53144;51.524;5.080;2023-09-18T11:41:31;23.06;78.70
66343;DHT22;53144;51.524;5.080;2023-09-18T11:46:32;23.05;78.10
66343;DHT22;53144;51.524;5.080;2023-09-18T11:48:58;23.57;75.52
66343;DHT22;53144;51.524;5.080;2023-09-18T11:51:24;23.23;74.96
66343;DHT22;53144;51.524;5.080;2023-09-18T11:53:55;22.91;76.40
66343;DHT22;53144;51.524;5.080;2023-09-18T11:56:21;22.52;77.63
66343;DHT22;53144;51.524;5.080;2023-09-18T11:58:47;22.65;79.77
66343;DHT22;53144;51.524;5.080;2023-09-18T12:01:13;22.21;79.49
66343;DHT22;53144;51.524;5.080;2023-09-18T12:03:40;21.97;79.13
66343;DHT22;53144;51.524;5.080;2023-09-18T12:06:06;22.95;78.67
66343;DHT22;53144;51.524;5.080;2023-09-18T12:08:32;22.60;77.77
66343;DHT22;53144;51.524;5.080;2023-09-18T12:10:58;22.44;78.12
66343;DHT22;53144;51.524;5.080;2023-09-18T12:13:27;22.34;78.46
66343;DHT22;53144;51.524;5.080;2023-09-18T12:16:03;22.13;78.38
66343;DHT22;53144;51.524;5.080;2023-09-18T12:18:32;22.51;76.93
66343;DHT22;53144;51.524;5.080;2023-09-18T12:21:01;22.91;76.89
66343;DHT22;53144;51.524;5.080;2023-09-18T12:23:29;23.56;75.21
66343;DHT22;53144;51.524;5.080;2023-09-18T12:26:01;23.71;73.72
66343;DHT22;53144;51.524;5.080;2023-09-18T12:28:27;23.74;74.12
66343;DHT22;53144;51.524;5.080;2023-09-18T12:30:56;22.98;76.93
66343;DHT22;53144;51.524;5.080;2023-09-18T12:33:25;22.65;75.83
66343;DHT22;53144;51.524;5.080;2023-09-18T12:35:52;22.58;75.57
66343;DHT22;53144;51.524;5.080;2023-09-18T12:38:18;22.52;75.92
66343;DHT22;53144;51.524;5.080;2023-09-18T12:40:52;22.69;74.82
66343;DHT22;53144;51.524;5.080;2023-09-18T12:43:18;23.67;73.18
66343;DHT22;53144;51.524;5.080;2023-09-18T12:45:45;24.29;69.66
66343;DHT22;53144;51.524;5.080;2023-09-18T12:48:11;24.77;69.40
66343;DHT22;53144;51.524;5.080;2023-09-18T12:50:37;24.90;68.87
66343;DHT22;53144;51.524;5.080;2023-09-18T12:53:10;25.07;68.49
66343;DHT22;53144;51.524;5.080;2023-09-18T12:55:36;25.15;68.33
66343;DHT22;53144;51.524;5.080;2023-09-18T12:58:02;24.96;67.88
66343;DHT22;53144;51.524;5.080;2023-09-18T13:00:33;25.21;67.34
66343;DHT22;53144;51.524;5.080;2023-09-18T13:02:58;25.45;66.61
66343;DHT22;53144;51.524;5.080;2023-09-18T13:05:24;25.28;66.47
66343;DHT22;53144;51.524;5.080;2023-09-18T13:08:02;24.76;66.48
66343;DHT22;53144;51.524;5.080;2023-09-18T13:10:28;25.21;66.41
66343;DHT22;53144;51.524;5.080;2023-09-18T13:12:53;25.21;65.95
66343;DHT22;53144;51.524;5.080;2023-09-18T13:15:30;25.41;65.99
66343;DHT22;53144;51.524;5.080;2023-09-18T13:17:58;25.04;66.66
66343;DHT22;53144;51.524;5.080;2023-09-18T13:20:28;24.77;65.49
66343;DHT22;53144;51.524;5.080;2023-09-18T13:22:56;24.36;66.72
66343;DHT22;53144;51.524;5.080;2023-09-18T13:25:28;24.59;67.72
66343;DHT22;53144;51.524;5.080;2023-09-18T13:27:54;24.91;66.99
66343;DHT22;53144;51.524;5.080;2023-09-18T13:30:20;25.18;65.39
66343;DHT22;53144;51.524;5.080;2023-09-18T13:32:48;25.45;64.84
66343;DHT22;53144;51.524;5.080;2023-09-18T13:35:15;25.13;63.94
66343;DHT22;53144;51.524;5.080;2023-09-18T13:37:41;25.07;65.90
66343;DHT22;53144;51.524;5.080;2023-09-18T13:40:07;23.98;69.31
66343;DHT22;53144;51.524;5.080;2023-09-18T13:42:34;24.24;69.01
66343;DHT22;53144;51.524;5.080;2023-09-18T13:44:59;24.53;67.99
66343;DHT22;53144;51.524;5.080;2023-09-18T13:47:34;24.30;65.94
66343;DHT22;53144;51.524;5.080;2023-09-18T13:50:01;24.00;67.20
66343;DHT22;53144;51.524;5.080;2023-09-18T13:52:34;24.02;66.79
66343;DHT22;53144;51.524;5.080;2023-09-18T13:54:59;23.75;66.92
66343;DHT22;53144;51.524;5.080;2023-09-18T13:57:25;23.63;66.40
66343;DHT22;53144;51.524;5.080;2023-09-18T13:59:51;23.61;66.28
66343;DHT22;53144;51.524;5.080;2023-09-18T14:02:18;23.43;66.81
66343;DHT22;53144;51.524;5.080;2023-09-18T14:04:44;23.46;67.64
66343;DHT22;53144;51.524;5.080;2023-09-18T14:07:11;23.53;66.68
66343;DHT22;53144;51.524;5.080;2023-09-18T14:09:37;23.47;68.29
66343;DHT22;53144;51.524;5.080;2023-09-18T14:12:03;23.34;67.84
66343;DHT22;53144;51.524;5.080;2023-09-18T14:14:29;23.39;67.55
66343;DHT22;53144;51.524;5.080;2023-09-18T14:16:55;23.30;68.23
66343;DHT22;53144;51.524;5.080;2023-09-18T14:19:20;23.27;67.94
66343;DHT22;53144;51.524;5.080;2023-09-18T14:21:47;23.31;67.76
66343;DHT22;53144;51.524;5.080;2023-09-18T14:24:15;23.27;67.73
66343;DHT22;53144;51.524;5.080;2023-09-18T14:26:43;23.24;68.54
66343;DHT22;53144;51.524;5.080;2023-09-18T14:29:09;23.30;67.05
66343;DHT22;53144;51.524;5.080;2023-09-18T14:31:39;23.20;66.13
66343;DHT22;53144;51.524;5.080;2023-09-18T14:34:05;23.15;66.47
66343;DHT22;53144;51.524;5.080;2023-09-18T14:36:36;23.09;66.81
66343;DHT22;53144;51.524;5.080;2023-09-18T14:39:04;22.95;67.22
66343;DHT22;53144;51.524;5.080;2023-09-18T14:41:30;22.85;69.28
66343;DHT22;53144;51.524;5.080;2023-09-18T14:43:57;22.85;67.08
66343;DHT22;53144;51.524;5.080;2023-09-18T14:46:24;22.73;67.67
66343;DHT22;53144;51.524;5.080;2023-09-18T14:48:49;22.72;67.60
66343;DHT22;53144;51.524;5.080;2023-09-18T14:51:15;22.57;69.36
66343;DHT22;53144;51.524;5.080;2023-09-18T14:53:40;21.72;70.18
66343;DHT22;53144;51.524;5.080;2023-09-18T14:56:06;19.43;87.17
66343;DHT22;53144;51.524;5.080;2023-09-18T14:58:31;18.10;91.48
66343;DHT22;53144;51.524;5.080;2023-09-18T15:00:57;17.58;93.31
66343;DHT22;53144;51.524;5.080;2023-09-18T15:03:23;17.20;95.47
66343;DHT22;53144;51.524;5.080;2023-09-18T15:05:51;16.91;96.80
66343;DHT22;53144;51.524;5.080;2023-09-18T15:08:17;16.79;97.52
66343;DHT22;53144;51.524;5.080;2023-09-18T15:10:47;16.80;98.46
66343;DHT22;53144;51.524;5.080;2023-09-18T15:13:13;16.81;98.58
66343;DHT22;53144;51.524;5.080;2023-09-18T15:15:41;16.76;97.82
66343;DHT22;53144;51.524;5.080;2023-09-18T15:18:06;16.67;97.76
66343;DHT22;53144;51.524;5.080;2023-09-18T15:20:33;16.76;97.76
66343;DHT22;53144;51.524;5.080;2023-09-18T15:22:59;16.77;97.64
66343;DHT22;53144;51.524;5.080;2023-09-18T15:25:24;17.03;97.71
66343;DHT22;53144;51.524;5.080;2023-09-18T15:27:50;17.27;97.55
66343;DHT22;53144;51.524;5.080;2023-09-18T15:30:15;17.44;97.44
66343;DHT22;53144;51.524;5.080;2023-09-18T15:32:53;17.52;96.50
66343;DHT22;53144;51.524;5.080;2023-09-18T15:35:23;17.46;96.88
66343;DHT22;53144;51.524;5.080;2023-09-18T15:37:49;17.49;96.59